Terminal Aerodrome Forecast
Issued by NWS Brownsville, TX

Home | Current Version | Previous Version | Text Only | Print | Product List | Glossary On
Versions: 1 2 3 4 5 6 7 8 9 10 11 12 13 14 15 16
000
FTUS44 KBRO 230818 AAA
TAFHRL
TAF AMD
KHRL 230818Z 2308/2406 16005KT P6SM SKC
      TEMPO 2308/2312 1SM BR
     FM231600 17016G22KT P6SM SKC
     FM240200 15013KT P6SM SKC=

USA.gov is the U.S. government's official web portal to all federal, state and local government web resources and services.